Time;durP1;ratioP1;P1;durP2;ratioP2;P2;SDS_P1;SDS_P2;PMS_P1;PMS_P2;Temp;Humidity;BMP_temperature;BMP_pressure;BME280_temperature;BME280_humidity;BME280_pressure;Samples;Min_cycle;Max_cycle;Signal;HPM_P1;HPM_P2
2022/01/15 00:00:56;;;;;;;63.47;36.72;;;0.40;60.50;;;;;;5073233;28;20052;-20
2022/01/15 00:03:22;;;;;;;59.65;33.90;;;0.40;61.60;;;;;;5073181;28;20111;-20
2022/01/15 00:05:48;;;;;;;29.95;17.40;;;0.40;61.00;;;;;;5074445;28;20074;-20
2022/01/15 00:08:14;;;;;;;69.28;41.05;;;0.40;60.90;;;;;;5077111;28;20409;-21
2022/01/15 00:10:40;;;;;;;28.25;15.82;;;0.30;60.60;;;;;;5075731;28;20032;-20
2022/01/15 00:13:13;;;;;;;26.60;14.02;;;0.30;60.60;;;;;;5076961;28;20032;-21
2022/01/15 00:15:46;;;;;;;79.05;42.53;;;0.30;60.10;;;;;;5077222;28;20038;-21
2022/01/15 00:18:15;;;;;;;45.95;25.75;;;0.30;62.10;;;;;;5076479;28;20032;-20
2022/01/15 00:20:41;;;;;;;54.30;34.58;;;0.20;61.90;;;;;;5076591;28;20021;-21
2022/01/15 00:23:08;;;;;;;70.07;42.70;;;0.20;60.80;;;;;;5077000;28;20031;-21
2022/01/15 00:25:34;;;;;;;26.10;13.90;;;0.20;60.50;;;;;;5076719;28;20087;-20
2022/01/15 00:28:01;;;;;;;26.10;14.10;;;0.20;60.20;;;;;;5076960;28;20027;-21
2022/01/15 00:30:28;;;;;;;31.10;17.33;;;0.20;60.10;;;;;;5076360;28;20068;-20
2022/01/15 00:32:54;;;;;;;66.30;40.15;;;0.20;60.10;;;;;;5076610;28;20100;-21
2022/01/15 00:35:23;;;;;;;29.52;18.38;;;0.20;61.10;;;;;;5076379;28;20560;-20
2022/01/15 00:37:49;;;;;;;31.05;16.58;;;0.10;60.70;;;;;;5076661;28;20131;-20
2022/01/15 00:40:19;;;;;;;40.05;19.52;;;0.10;60.40;;;;;;5076379;28;20078;-21
2022/01/15 00:42:46;;;;;;;22.98;13.25;;;0.10;60.40;;;;;;5076826;28;20025;-20
2022/01/15 00:45:19;;;;;;;22.60;13.15;;;0.10;60.20;;;;;;5076582;28;20024;-20
2022/01/15 00:47:46;;;;;;;27.42;14.45;;;0.10;59.90;;;;;;5076291;28;20464;-21
2022/01/15 00:50:12;;;;;;;24.02;12.60;;;0.10;59.80;;;;;;5076117;28;20021;-22
2022/01/15 00:52:38;;;;;;;26.38;13.63;;;0.00;59.60;;;;;;5076110;28;20475;-20
2022/01/15 00:55:06;;;;;;;24.23;13.60;;;0.00;59.70;;;;;;5075897;28;20056;-20
2022/01/15 00:57:31;;;;;;;23.58;14.07;;;0.00;59.80;;;;;;5075894;28;20024;-21
2022/01/15 00:59:57;;;;;;;42.85;27.58;;;0.00;60.00;;;;;;5076122;28;20024;-20
2022/01/15 01:02:23;;;;;;;34.38;22.40;;;0.00;59.80;;;;;;5075644;28;20112;-21
2022/01/15 01:04:49;;;;;;;21.25;12.32;;;0.00;59.70;;;;;;5076379;28;20039;-20
2022/01/15 01:07:15;;;;;;;36.80;19.13;;;0.00;59.60;;;;;;5076450;28;20033;-20
2022/01/15 01:12:26;;;;;;;21.70;12.93;;;0.00;60.90;;;;;;5075820;28;20072;-20
2022/01/15 01:20:35;;;;;;;26.98;16.27;;;-0.10;60.00;;;;;;5075713;28;20067;-20
2022/01/15 01:23:02;;;;;;;64.88;41.10;;;-0.10;59.90;;;;;;5076166;28;20029;-20
2022/01/15 01:25:38;;;;;;;40.47;24.27;;;-0.10;60.50;;;;;;5075861;28;20054;-19
2022/01/15 01:28:22;;;;;;;21.40;12.40;;;-0.10;61.60;;;;;;5075518;28;20058;-20
2022/01/15 01:30:55;;;;;;;74.85;43.47;;;-0.10;60.50;;;;;;5075431;28;20108;-20
2022/01/15 01:36:01;;;;;;;35.45;19.13;;;-0.10;66.10;;;;;;5075789;28;20063;-20
2022/01/15 01:38:44;;;;;;;75.40;41.67;;;-0.20;62.80;;;;;;5075035;28;20043;-19
2022/01/15 01:41:18;;;;;;;76.50;44.88;;;-0.10;65.50;;;;;;5075306;28;20484;-20
2022/01/15 01:46:18;;;;;;;123.20;72.55;;;-0.20;62.80;;;;;;5074978;28;20028;-20
2022/01/15 01:48:45;;;;;;;66.05;38.08;;;-0.20;66.30;;;;;;5075115;28;20107;-19
2022/01/15 01:51:22;;;;;;;55.10;35.05;;;-0.20;66.20;;;;;;5074944;28;20025;-20
2022/01/15 01:53:50;;;;;;;28.95;16.75;;;-0.30;63.90;;;;;;5074802;28;20171;-19
2022/01/15 01:56:16;;;;;;;70.32;44.45;;;-0.30;63.10;;;;;;5073583;28;20032;-20
2022/01/15 01:58:43;;;;;;;49.10;27.50;;;-0.30;63.00;;;;;;5075038;28;20036;-20
2022/01/15 02:01:09;;;;;;;50.53;28.23;;;-0.20;63.60;;;;;;5073918;28;20400;-20
2022/01/15 02:03:36;;;;;;;79.22;45.08;;;-0.20;62.60;;;;;;5075108;28;20032;-19
2022/01/15 02:06:02;;;;;;;65.55;39.20;;;-0.10;62.50;;;;;;5073644;28;20024;-20
2022/01/15 02:08:32;;;;;;;52.03;31.38;;;-0.10;62.40;;;;;;5074830;28;20025;-20
2022/01/15 02:11:05;;;;;;;69.57;40.10;;;0.00;62.30;;;;;;5074971;28;20017;-19
2022/01/15 02:13:33;;;;;;;55.15;31.92;;;0.00;62.00;;;;;;5074647;28;20024;-20
2022/01/15 02:16:00;;;;;;;38.05;22.48;;;0.00;62.30;;;;;;5075168;28;20027;-19
2022/01/15 02:18:27;;;;;;;36.80;20.85;;;0.00;61.80;;;;;;5072998;28;20403;-20
2022/01/15 02:23:46;;;;;;;41.58;25.25;;;0.00;61.30;;;;;;5075114;28;20043;-19
2022/01/15 02:26:18;;;;;;;35.05;20.70;;;0.00;62.30;;;;;;5074475;28;20052;-21
2022/01/15 02:28:51;;;;;;;29.83;15.20;;;0.00;62.10;;;;;;5073450;28;20039;-20
2022/01/15 02:31:19;;;;;;;24.38;14.93;;;0.00;61.60;;;;;;5074568;28;20040;-20
2022/01/15 02:33:46;;;;;;;39.70;22.73;;;0.00;61.50;;;;;;5074174;28;20033;-19
2022/01/15 02:36:15;;;;;;;25.40;15.50;;;0.00;61.40;;;;;;5074002;28;20025;-20
2022/01/15 02:38:42;;;;;;;41.83;23.25;;;0.00;61.00;;;;;;5074330;28;20041;-19
2022/01/15 02:41:08;;;;;;;73.13;40.90;;;0.00;61.30;;;;;;5074060;28;20025;-20
2022/01/15 02:43:35;;;;;;;28.08;15.38;;;0.00;61.30;;;;;;5074594;28;20021;-19
2022/01/15 02:48:00;;;;;;;42.95;21.95;;;-0.10;61.90;;;;;;5073916;28;20385;-20
2022/01/15 02:48:52;;;;;;;39.03;20.92;;;-0.10;62.50;;;;;;5073752;28;20028;-20
2022/01/15 02:51:21;;;;;;;57.53;34.22;;;-0.10;62.80;;;;;;5073748;28;20041;-20
2022/01/15 02:53:54;;;;;;;47.95;25.40;;;-0.10;64.10;;;;;;5073501;28;20079;-19
2022/01/15 02:56:22;;;;;;;;;;;-0.20;63.50;;;;;;5074335;28;20369;-20
2022/01/15 02:58:48;;;;;;;101.28;54.83;;;-0.20;64.20;;;;;;5073665;28;19937;-19
2022/01/15 03:01:14;;;;;;;95.18;53.35;;;-0.20;65.50;;;;;;5073972;28;20499;-19
2022/01/15 03:03:40;;;;;;;87.47;49.17;;;-0.20;64.60;;;;;;5073706;28;20036;-19
2022/01/15 03:06:14;;;;;;;116.13;66.70;;;-0.30;64.50;;;;;;5073460;28;20028;-19
2022/01/15 03:08:41;;;;;;;;;;;-0.30;67.00;;;;;;5074487;28;20094;-19
2022/01/15 03:11:07;;;;;;;42.80;21.50;;;-0.30;68.60;;;;;;5073548;28;19904;-19
2022/01/15 03:13:35;;;;;;;58.45;30.60;;;-0.30;66.40;;;;;;5073728;28;20103;-20
2022/01/15 03:16:01;;;;;;;28.63;16.60;;;-0.30;65.70;;;;;;5073764;28;20059;-19
2022/01/15 03:18:28;;;;;;;33.10;17.83;;;-0.30;64.30;;;;;;5073122;28;20115;-19
2022/01/15 03:20:54;;;;;;;30.10;16.77;;;-0.30;63.60;;;;;;5073462;28;20373;-19
2022/01/15 03:23:20;;;;;;;31.60;17.58;;;-0.30;63.40;;;;;;5073281;28;20123;-19
2022/01/15 03:25:46;;;;;;;24.75;13.93;;;-0.20;63.00;;;;;;5073555;28;20426;-19
2022/01/15 03:28:12;;;;;;;55.30;32.88;;;-0.20;62.80;;;;;;5073392;28;20062;-19
2022/01/15 03:30:39;;;;;;;87.18;50.72;;;-0.10;62.40;;;;;;5073256;28;20442;-20
2022/01/15 03:33:07;;;;;;;68.63;39.22;;;-0.10;63.30;;;;;;5073461;28;20099;-19
2022/01/15 03:35:34;;;;;;;111.05;63.63;;;-0.10;62.80;;;;;;5073384;28;20035;-19
2022/01/15 03:38:01;;;;;;;58.25;33.67;;;-0.10;65.90;;;;;;5073110;28;20098;-19
2022/01/15 03:40:27;;;;;;;35.85;19.30;;;0.00;63.50;;;;;;5072627;28;20472;-20
2022/01/15 03:42:53;;;;;;;101.38;59.88;;;-0.10;62.80;;;;;;5073904;28;20025;-19
2022/01/15 03:45:19;;;;;;;46.13;23.92;;;-0.10;63.20;;;;;;5073174;28;20048;-19
2022/01/15 03:47:46;;;;;;;49.13;25.55;;;-0.10;63.40;;;;;;5073377;28;20096;-19
2022/01/15 03:50:14;;;;;;;91.65;56.97;;;-0.10;62.60;;;;;;5072986;28;20020;-19
2022/01/15 03:52:40;;;;;;;42.83;21.98;;;-0.10;62.80;;;;;;5071805;28;20393;-19
2022/01/15 03:55:11;;;;;;;90.97;52.30;;;-0.10;62.70;;;;;;5072907;28;20057;-20
2022/01/15 03:57:41;;;;;;;56.33;30.15;;;-0.10;62.60;;;;;;5073279;28;20558;-19
2022/01/15 04:00:12;;;;;;;66.32;37.42;;;-0.20;64.00;;;;;;5072539;28;20031;-19
2022/01/15 04:02:39;;;;;;;111.80;64.35;;;-0.20;63.30;;;;;;5074077;28;20108;-19
2022/01/15 04:05:09;;;;;;;87.05;50.30;;;-0.20;64.20;;;;;;5072799;28;20025;-20
2022/01/15 04:07:35;;;;;;;77.45;44.33;;;-0.30;64.20;;;;;;5073750;28;20033;-20
2022/01/15 04:10:07;;;;;;;82.22;44.92;;;-0.30;63.90;;;;;;5072816;28;20107;-20
2022/01/15 04:12:33;;;;;;;55.83;30.15;;;-0.30;63.40;;;;;;5072728;28;20016;-20
2022/01/15 04:14:59;;;;;;;70.90;38.83;;;-0.30;64.10;;;;;;5072802;28;20029;-20
2022/01/15 04:17:26;;;;;;;66.47;37.45;;;-0.40;63.80;;;;;;5072813;28;20063;-19
2022/01/15 04:19:53;;;;;;;46.10;25.65;;;-0.40;63.20;;;;;;5072874;28;20024;-19
2022/01/15 04:22:19;;;;;;;27.05;15.23;;;-0.40;63.30;;;;;;5072833;28;20056;-19
2022/01/15 04:24:46;;;;;;;28.90;15.88;;;-0.40;63.00;;;;;;5072652;28;20028;-19
2022/01/15 04:27:14;;;;;;;44.55;30.33;;;-0.50;62.80;;;;;;5072649;28;20036;-19
2022/01/15 04:29:40;;;;;;;80.90;48.20;;;-0.50;62.80;;;;;;5072634;28;20492;-19
2022/01/15 04:32:07;;;;;;;64.28;35.05;;;-0.50;64.20;;;;;;5072633;28;20024;-19
2022/01/15 04:34:33;;;;;;;61.50;32.92;;;-0.60;65.20;;;;;;5072579;28;20029;-19
2022/01/15 04:37:14;;;;;;;32.15;16.60;;;-0.60;64.10;;;;;;5072634;28;20516;-19
2022/01/15 04:39:42;;;;;;;42.78;23.58;;;-0.60;63.20;;;;;;5073086;28;20102;-19
2022/01/15 04:42:09;;;;;;;37.00;19.90;;;-0.70;63.50;;;;;;5072850;28;20028;-19
2022/01/15 04:44:37;;;;;;;40.78;22.25;;;-0.70;63.50;;;;;;5071067;28;20471;-18
2022/01/15 04:47:04;;;;;;;39.53;21.13;;;-0.70;64.70;;;;;;5072791;28;20389;-19
2022/01/15 04:49:31;;;;;;;29.15;16.00;;;-0.70;64.40;;;;;;5072738;28;20210;-19
2022/01/15 04:51:59;;;;;;;26.20;15.02;;;-0.70;63.70;;;;;;5074205;28;20057;-20
2022/01/15 04:54:25;;;;;;;24.70;13.88;;;-0.80;63.60;;;;;;5075671;28;20059;-20
2022/01/15 04:56:51;;;;;;;26.70;15.82;;;-0.80;63.50;;;;;;5076076;28;20028;-19
2022/01/15 04:59:17;;;;;;;27.55;15.27;;;-0.80;63.70;;;;;;5076271;28;20029;-19
2022/01/15 05:01:42;;;;;;;32.45;18.90;;;-0.80;63.40;;;;;;5076354;28;20021;-19
2022/01/15 05:04:08;;;;;;;54.10;30.08;;;-0.90;63.20;;;;;;5075949;28;20060;-19
2022/01/15 05:06:34;;;;;;;28.50;17.38;;;-0.90;64.50;;;;;;5075553;28;20029;-19
2022/01/15 05:09:05;;;;;;;24.42;14.10;;;-0.90;63.70;;;;;;5075894;28;20078;-19
2022/01/15 05:14:12;;;;;;;60.03;32.35;;;-0.90;64.80;;;;;;5075861;28;20033;-19
2022/01/15 05:16:39;;;;;;;38.13;19.60;;;-0.90;65.30;;;;;;5075983;28;20032;-19
2022/01/15 05:19:06;;;;;;;36.55;20.20;;;-0.80;65.20;;;;;;5076235;28;20024;-19
2022/01/15 05:21:32;;;;;;;32.92;18.85;;;-0.80;64.50;;;;;;5075837;28;20021;-19
2022/01/15 05:23:58;;;;;;;26.35;16.98;;;-0.80;64.80;;;;;;5075600;28;20107;-19
2022/01/15 05:26:24;;;;;;;24.77;14.77;;;-0.70;64.20;;;;;;5075648;28;20111;-19
2022/01/15 05:28:50;;;;;;;28.02;15.15;;;-0.70;63.40;;;;;;5074252;28;20108;-19
2022/01/15 05:31:16;;;;;;;28.40;16.45;;;-0.60;63.40;;;;;;5074237;28;20029;-19
2022/01/15 05:33:42;;;;;;;37.83;20.55;;;-0.60;63.70;;;;;;5075726;28;20043;-19
2022/01/15 05:36:08;;;;;;;33.67;19.63;;;-0.60;64.40;;;;;;5076140;28;20457;-19
2022/01/15 05:38:34;;;;;;;51.10;25.95;;;-0.60;63.50;;;;;;5075629;28;20025;-19
2022/01/15 05:41:00;;;;;;;61.63;33.22;;;-0.60;63.50;;;;;;5075279;28;20447;-19
2022/01/15 05:43:26;;;;;;;48.42;28.52;;;-0.60;64.30;;;;;;5075539;28;20027;-19
2022/01/15 05:45:52;;;;;;;25.52;12.95;;;-0.60;63.80;;;;;;5075163;28;20025;-19
2022/01/15 05:48:18;;;;;;;32.22;16.48;;;-0.60;63.10;;;;;;5075077;28;20062;-19
2022/01/15 05:50:44;;;;;;;69.63;40.42;;;-0.60;63.20;;;;;;5075312;28;20032;-19
2022/01/15 05:53:10;;;;;;;24.20;13.70;;;-0.60;63.40;;;;;;5073837;28;20056;-20
2022/01/15 05:55:36;;;;;;;26.58;14.00;;;-0.70;63.00;;;;;;5074873;28;20054;-19
2022/01/15 05:58:02;;;;;;;69.93;37.20;;;-0.70;62.70;;;;;;5075171;28;20032;-19
2022/01/15 06:00:27;;;;;;;50.60;29.30;;;-0.70;64.50;;;;;;5075028;28;20418;-20
2022/01/15 06:02:53;;;;;;;29.25;16.88;;;-0.70;63.80;;;;;;5075072;28;20024;-20
2022/01/15 06:05:19;;;;;;;27.10;14.35;;;-0.70;64.00;;;;;;5074759;28;20031;-19
2022/01/15 06:07:45;;;;;;;67.88;34.67;;;-0.80;63.50;;;;;;5075045;28;20028;-19
2022/01/15 06:10:11;;;;;;;49.08;27.73;;;-0.80;64.80;;;;;;5074779;28;20075;-19
2022/01/15 06:12:42;;;;;;;47.67;26.10;;;-0.80;65.10;;;;;;5073357;28;20028;-19
2022/01/15 06:15:10;;;;;;;56.42;29.98;;;-0.90;65.10;;;;;;5074636;28;20029;-19
2022/01/15 06:17:36;;;;;;;67.47;37.20;;;-0.90;64.90;;;;;;5074907;28;20025;-19
2022/01/15 06:20:03;;;;;;;51.50;30.52;;;-0.90;66.00;;;;;;5074628;28;20040;-19
2022/01/15 06:22:29;;;;;;;42.00;22.23;;;-1.00;65.30;;;;;;5074516;28;20028;-19
2022/01/15 06:24:55;;;;;;;44.90;23.63;;;-1.00;65.70;;;;;;5074876;28;20051;-19
2022/01/15 06:27:21;;;;;;;29.00;15.98;;;-1.00;65.80;;;;;;5073163;28;20032;-19
2022/01/15 06:29:47;;;;;;;43.17;23.15;;;-1.00;65.00;;;;;;5074786;28;20461;-19
2022/01/15 06:32:13;;;;;;;41.53;24.05;;;-1.00;64.70;;;;;;5074013;28;20051;-19
2022/01/15 06:34:40;;;;;;;38.33;18.90;;;-1.00;65.20;;;;;;5074990;28;20029;-19
2022/01/15 06:37:06;;;;;;;42.28;20.83;;;-1.00;65.90;;;;;;5074812;28;20082;-19
2022/01/15 06:39:34;;;;;;;24.02;14.05;;;-1.00;65.20;;;;;;5074059;28;20044;-19
2022/01/15 06:42:00;;;;;;;22.10;11.30;;;-1.00;65.50;;;;;;5074398;28;20082;-19
2022/01/15 06:44:27;;;;;;;25.73;13.00;;;-1.00;64.70;;;;;;5074137;28;20539;-20
2022/01/15 06:46:54;;;;;;;18.63;9.10;;;-0.90;64.70;;;;;;5073929;28;20108;-19
2022/01/15 06:49:21;;;;;;;18.05;10.48;;;-0.80;64.20;;;;;;5073900;28;20070;-19
2022/01/15 06:51:47;;;;;;;27.05;15.55;;;-0.80;64.00;;;;;;5074175;28;20032;-19
2022/01/15 06:54:13;;;;;;;20.40;9.80;;;-0.70;64.10;;;;;;5073813;28;20079;-19
2022/01/15 06:56:40;;;;;;;31.40;15.40;;;-0.70;63.60;;;;;;5074104;28;20476;-19
2022/01/15 06:59:05;;;;;;;56.75;33.00;;;-0.70;63.60;;;;;;5074001;28;20028;-19
2022/01/15 07:01:33;;;;;;;49.20;27.02;;;-0.70;64.10;;;;;;5073651;28;20074;-19
2022/01/15 07:03:59;;;;;;;47.85;25.60;;;-0.70;64.90;;;;;;5074212;28;20024;-19
2022/01/15 07:06:25;;;;;;;71.72;38.45;;;-0.70;64.90;;;;;;5073430;28;20032;-19
2022/01/15 07:08:51;;;;;;;78.35;45.80;;;-0.70;66.40;;;;;;5073752;28;20030;-19
2022/01/15 07:11:17;;;;;;;64.15;36.10;;;-0.70;68.20;;;;;;5073856;28;20067;-19
2022/01/15 07:13:42;;;;;;;49.13;27.00;;;-0.70;67.30;;;;;;5073324;28;20435;-20
2022/01/15 07:16:08;;;;;;;49.42;27.90;;;-0.70;65.90;;;;;;5073479;28;20031;-19
2022/01/15 07:18:34;;;;;;;43.90;24.85;;;-0.60;66.10;;;;;;5071889;28;20032;-19
2022/01/15 07:21:00;;;;;;;53.67;28.52;;;-0.70;66.40;;;;;;5073629;28;20044;-19
2022/01/15 07:23:27;;;;;;;38.22;20.60;;;-0.60;66.00;;;;;;5073356;28;20380;-19
2022/01/15 07:25:52;;;;;;;23.42;12.70;;;-0.60;66.00;;;;;;5073582;28;20031;-19
2022/01/15 07:28:19;;;;;;;51.88;30.33;;;-0.60;65.10;;;;;;5073471;28;20029;-19
2022/01/15 07:30:46;;;;;;;25.58;13.73;;;-0.60;65.60;;;;;;5073695;28;20431;-19
2022/01/15 07:33:12;;;;;;;19.95;11.68;;;-0.50;65.00;;;;;;5073256;28;20040;-19
2022/01/15 07:35:38;;;;;;;18.20;9.38;;;-0.40;65.00;;;;;;5073402;28;20027;-19
2022/01/15 07:38:04;;;;;;;17.98;9.82;;;-0.40;64.50;;;;;;5071924;28;20067;-19
2022/01/15 07:40:30;;;;;;;16.85;9.13;;;-0.30;64.20;;;;;;5073011;28;20385;-19
2022/01/15 07:42:56;;;;;;;22.55;12.13;;;-0.20;64.30;;;;;;5073722;28;20020;-19
2022/01/15 07:45:22;;;;;;;81.93;45.47;;;-0.10;64.10;;;;;;5073448;28;20025;-19
2022/01/15 07:47:49;;;;;;;43.75;23.23;;;0.00;65.00;;;;;;5073187;28;20370;-19
2022/01/15 07:50:23;;;;;;;44.72;27.58;;;0.00;65.20;;;;;;5072821;28;20021;-20
2022/01/15 07:52:57;;;;;;;29.60;15.90;;;0.20;64.40;;;;;;5073995;28;20059;-18
2022/01/15 07:55:25;;;;;;;20.13;10.98;;;0.30;64.40;;;;;;5072863;28;20049;-19
2022/01/15 07:57:51;;;;;;;23.95;11.80;;;0.40;64.10;;;;;;5072856;28;20039;-19
2022/01/15 08:00:18;;;;;;;57.58;30.48;;;0.50;64.20;;;;;;5072866;28;20028;-20
2022/01/15 08:02:44;;;;;;;23.25;11.27;;;0.70;64.10;;;;;;5073484;28;20024;-19
2022/01/15 08:05:12;;;;;;;24.27;12.23;;;0.80;63.50;;;;;;5073438;28;20028;-20
2022/01/15 08:07:40;;;;;;;29.63;14.43;;;0.90;63.80;;;;;;5073199;28;20032;-19
2022/01/15 08:10:07;;;;;;;42.78;21.85;;;0.90;63.70;;;;;;5073195;28;20134;-19
2022/01/15 08:12:41;;;;;;;57.10;29.05;;;1.00;62.80;;;;;;5072644;28;20063;-19
2022/01/15 08:15:07;;;;;;;37.65;19.33;;;1.10;63.40;;;;;;5073813;28;20048;-19
2022/01/15 08:17:33;;;;;;;61.78;32.78;;;1.20;63.60;;;;;;5073078;28;20494;-19
2022/01/15 08:19:59;;;;;;;80.22;43.03;;;1.30;64.90;;;;;;5071450;28;20020;-19
2022/01/15 08:22:25;;;;;;;60.92;31.58;;;1.40;67.20;;;;;;5072536;28;20630;-19
2022/01/15 08:24:51;;;;;;;53.58;32.33;;;1.50;65.40;;;;;;5071659;28;20036;-19
2022/01/15 08:27:17;;;;;;;54.80;27.60;;;1.60;64.30;;;;;;5075147;28;20473;-19
2022/01/15 08:29:43;;;;;;;35.47;20.50;;;1.80;64.30;;;;;;5076961;28;20025;-20
2022/01/15 08:32:09;;;;;;;68.75;36.90;;;1.90;64.10;;;;;;5076904;28;20074;-20
2022/01/15 08:34:35;;;;;;;67.43;35.63;;;2.10;65.20;;;;;;5076238;28;20017;-20
2022/01/15 08:37:01;;;;;;;46.70;25.95;;;2.40;64.60;;;;;;5076425;28;20029;-19
2022/01/15 08:39:27;;;;;;;48.95;24.98;;;2.60;64.20;;;;;;5076337;28;20024;-20
2022/01/15 08:41:53;;;;;;;40.13;21.30;;;2.90;63.50;;;;;;5076595;28;20028;-20
2022/01/15 08:44:21;;;;;;;33.55;18.25;;;3.20;62.60;;;;;;5076140;28;20025;-19
2022/01/15 08:46:47;;;;;;;52.28;28.38;;;3.40;62.00;;;;;;5076595;28;20063;-20
2022/01/15 08:49:13;;;;;;;42.65;23.20;;;3.70;61.60;;;;;;5076577;28;20052;-19
2022/01/15 08:51:39;;;;;;;59.40;36.78;;;4.00;61.00;;;;;;5076082;28;20455;-19
2022/01/15 08:54:05;;;;;;;47.42;24.75;;;4.30;61.80;;;;;;5076338;28;20512;-19
2022/01/15 08:56:31;;;;;;;56.92;33.83;;;4.50;61.50;;;;;;5075914;28;20118;-20
2022/01/15 08:58:57;;;;;;;36.80;22.48;;;4.70;60.80;;;;;;5075995;28;20025;-20
2022/01/15 09:01:23;;;;;;;37.72;22.00;;;4.90;60.10;;;;;;5075965;28;20037;-20
2022/01/15 09:03:49;;;;;;;35.40;20.20;;;5.20;60.20;;;;;;5076154;28;20025;-21
2022/01/15 09:06:15;;;;;;;30.27;19.58;;;5.50;59.10;;;;;;5074525;28;20038;-20
2022/01/15 09:08:42;;;;;;;60.33;35.75;;;5.70;59.00;;;;;;5075835;28;20103;-20
2022/01/15 09:11:09;;;;;;;54.03;32.60;;;6.00;59.10;;;;;;5076106;28;20115;-20
2022/01/15 09:13:35;;;;;;;60.17;34.95;;;6.20;59.00;;;;;;5075881;28;20080;-21
2022/01/15 09:16:02;;;;;;;36.15;20.90;;;6.40;58.40;;;;;;5075731;28;20048;-21
2022/01/15 09:18:29;;;;;;;33.70;19.23;;;6.70;57.80;;;;;;5075441;28;20483;-21
2022/01/15 09:20:55;;;;;;;30.88;17.25;;;6.90;57.50;;;;;;5075373;28;20047;-21
2022/01/15 09:23:21;;;;;;;35.67;20.90;;;7.10;57.10;;;;;;5075984;28;20028;-21
2022/01/15 09:25:49;;;;;;;46.88;27.65;;;7.40;56.90;;;;;;5075556;28;20024;-21
2022/01/15 09:30:59;;;;;;;24.58;14.63;;;7.90;56.10;;;;;;5076165;28;20507;-21
2022/01/15 09:33:26;;;;;;;81.57;49.55;;;8.20;55.50;;;;;;5076064;28;20024;-21
2022/01/15 09:35:52;;;;;;;54.78;32.22;;;8.50;55.80;;;;;;5075506;28;20058;-21
2022/01/15 09:38:18;;;;;;;49.03;29.13;;;8.70;55.10;;;;;;5074822;28;20101;-21
2022/01/15 09:40:44;;;;;;;43.25;26.30;;;8.90;54.80;;;;;;5075588;28;20086;-21
2022/01/15 09:43:13;;;;;;;31.63;20.15;;;9.20;54.40;;;;;;5075510;28;20035;-21
2022/01/15 09:45:39;;;;;;;41.80;24.88;;;9.40;54.10;;;;;;5075555;28;20127;-20
2022/01/15 09:48:07;;;;;;;47.85;29.75;;;9.60;54.20;;;;;;5075491;28;20089;-21
2022/01/15 09:50:37;;;;;;;37.72;23.83;;;9.90;54.00;;;;;;5074974;28;20066;-21
2022/01/15 09:53:04;;;;;;;45.85;30.60;;;10.20;53.60;;;;;;5075100;28;20020;-21
2022/01/15 09:55:30;;;;;;;69.50;43.83;;;10.50;53.40;;;;;;5074888;28;20385;-21
2022/01/15 09:57:56;;;;;;;54.88;32.50;;;10.70;52.80;;;;;;5075207;28;20082;-21
2022/01/15 10:00:24;;;;;;;30.60;19.60;;;10.90;52.80;;;;;;5074767;28;20052;-21
2022/01/15 10:02:52;;;;;;;36.80;21.33;;;11.10;52.70;;;;;;5073690;28;20025;-20
2022/01/15 10:05:20;;;;;;;55.10;35.17;;;11.20;52.50;;;;;;5075283;28;20484;-21
2022/01/15 10:07:56;;;;;;;41.92;25.90;;;11.40;52.40;;;;;;5075109;28;20024;-21
2022/01/15 10:10:24;;;;;;;52.05;33.20;;;11.70;52.20;;;;;;5074791;28;20032;-21
2022/01/15 10:12:50;;;;;;;32.10;18.95;;;11.90;52.20;;;;;;5074697;28;20078;-20
2022/01/15 10:15:18;;;;;;;41.22;24.73;;;12.10;52.00;;;;;;5074745;28;20149;-20
2022/01/15 10:17:44;;;;;;;32.08;20.42;;;12.40;51.90;;;;;;5073703;28;20025;-20
2022/01/15 10:20:18;;;;;;;47.65;32.22;;;12.60;51.70;;;;;;5074651;28;20029;-20
2022/01/15 10:22:47;;;;;;;43.45;30.55;;;12.80;51.60;;;;;;5074533;28;20065;-20
2022/01/15 10:25:19;;;;;;;31.77;19.65;;;13.00;51.30;;;;;;5074774;28;20024;-20
2022/01/15 10:27:49;;;;;;;33.78;21.52;;;13.20;51.30;;;;;;5074398;28;20024;-20
2022/01/15 10:30:26;;;;;;;36.97;21.98;;;13.50;51.30;;;;;;5074129;28;20029;-20
2022/01/15 10:32:58;;;;;;;28.83;18.30;;;13.70;51.00;;;;;;5074306;28;20103;-20
2022/01/15 10:35:27;;;;;;;34.83;24.00;;;13.90;50.70;;;;;;5074549;28;20554;-21
2022/01/15 10:38:02;;;;;;;23.38;14.25;;;14.20;50.30;;;;;;5074004;28;20028;-20
2022/01/15 10:40:37;;;;;;;27.75;17.90;;;14.40;49.70;;;;;;5073974;28;20037;-20
2022/01/15 10:43:04;;;;;;;28.20;19.55;;;14.70;49.50;;;;;;5074579;28;20469;-20
2022/01/15 10:45:34;;;;;;;24.63;16.85;;;14.90;49.00;;;;;;5073983;28;20484;-20
2022/01/15 10:48:02;;;;;;;28.92;19.38;;;15.20;48.40;;;;;;5073998;28;20029;-21
2022/01/15 10:50:30;;;;;;;31.20;21.83;;;15.40;48.40;;;;;;5072873;28;20036;-20
2022/01/15 10:52:57;;;;;;;32.90;22.27;;;15.60;47.40;;;;;;5072638;28;20032;-21
2022/01/15 10:55:25;;;;;;;33.90;23.48;;;15.70;47.40;;;;;;5073885;28;20052;-20
2022/01/15 10:58:00;;;;;;;32.08;21.05;;;15.80;47.60;;;;;;5073801;28;20508;-20
2022/01/15 11:00:36;;;;;;;36.20;25.58;;;15.90;47.40;;;;;;5073860;28;20088;-21
2022/01/15 11:03:05;;;;;;;31.50;21.52;;;15.90;47.20;;;;;;5073742;28;20415;-20
2022/01/15 11:05:37;;;;;;;27.45;19.10;;;15.90;47.60;;;;;;5074110;28;20111;-20
2022/01/15 11:08:27;;;;;;;25.67;17.17;;;16.00;47.30;;;;;;5072620;28;20025;-21
2022/01/15 11:11:02;;;;;;;21.63;14.02;;;16.20;47.00;;;;;;5074115;28;20035;-20
2022/01/15 11:13:39;;;;;;;16.52;11.45;;;16.40;45.50;;;;;;5074673;28;20078;-20
2022/01/15 11:16:14;;;;;;;16.10;10.63;;;16.50;44.60;;;;;;5074637;28;20104;-21
2022/01/15 11:18:54;;;;;;;16.50;11.00;;;16.60;45.60;;;;;;5073453;28;20021;-20
2022/01/15 11:21:22;;;;;;;15.70;9.75;;;16.70;44.10;;;;;;5073393;28;20032;-21
2022/01/15 11:23:50;;;;;;;13.48;9.55;;;16.70;44.50;;;;;;5073413;28;20032;-21
2022/01/15 11:26:24;;;;;;;14.70;9.38;;;16.80;44.10;;;;;;5073169;28;20033;-21
2022/01/15 11:28:53;;;;;;;15.40;10.27;;;16.90;42.80;;;;;;5073353;28;20031;-21
2022/01/15 11:31:26;;;;;;;14.15;9.40;;;17.00;43.30;;;;;;5073625;28;20033;-20
2022/01/15 11:33:55;;;;;;;14.50;9.63;;;17.20;42.90;;;;;;5074175;28;20017;-20
2022/01/15 11:36:35;;;;;;;13.48;8.68;;;17.30;42.90;;;;;;5073014;28;20036;-21
2022/01/15 11:39:04;;;;;;;13.95;9.32;;;17.50;41.20;;;;;;5073703;28;20044;-20
2022/01/15 11:41:29;;;;;;;14.40;9.65;;;17.70;42.20;;;;;;5073221;28;20028;-20
2022/01/15 11:44:03;;;;;;;13.98;9.55;;;17.90;42.00;;;;;;5073370;28;20070;-20
2022/01/15 11:46:33;;;;;;;11.88;8.57;;;18.10;41.90;;;;;;5073009;28;20024;-21
2022/01/15 11:49:23;;;;;;;11.75;8.48;;;18.40;41.70;;;;;;5073152;28;20024;-21
2022/01/15 11:51:57;;;;;;;13.05;8.30;;;18.60;38.50;;;;;;5073279;28;20032;-21
2022/01/15 11:54:23;;;;;;;16.35;10.27;;;18.90;39.70;;;;;;5072882;28;20052;-21
2022/01/15 11:56:50;;;;;;;14.98;10.05;;;19.10;39.70;;;;;;5073030;28;20024;-21
2022/01/15 11:59:30;;;;;;;15.38;10.48;;;19.30;39.70;;;;;;5072911;28;20037;-21
2022/01/15 12:02:02;;;;;;;14.55;9.70;;;19.50;37.60;;;;;;5078475;28;20033;-21
2022/01/15 12:04:28;;;;;;;13.57;9.10;;;19.70;38.90;;;;;;5079205;28;20063;-20
2022/01/15 12:07:04;;;;;;;15.43;9.73;;;19.90;38.50;;;;;;5079478;28;20025;-20
2022/01/15 12:09:38;;;;;;;13.82;9.63;;;20.00;37.20;;;;;;5079590;28;20031;-20
2022/01/15 12:12:31;;;;;;;14.40;9.25;;;20.10;37.00;;;;;;5079572;28;20492;-20
2022/01/15 12:14:59;;;;;;;15.85;9.55;;;20.10;36.70;;;;;;5079957;28;20031;-21
2022/01/15 12:17:35;;;;;;;16.25;11.52;;;20.30;37.50;;;;;;5079557;28;20023;-20
2022/01/15 12:20:04;;;;;;;15.48;11.27;;;20.30;36.10;;;;;;5079679;28;20029;-20
2022/01/15 12:22:47;;;;;;;15.40;11.02;;;20.30;36.60;;;;;;5079149;28;20492;-20
2022/01/15 12:25:28;;;;;;;16.25;11.20;;;20.40;37.00;;;;;;5079056;28;20357;-21
2022/01/15 12:28:06;;;;;;;16.77;10.88;;;20.40;37.00;;;;;;5079718;28;20105;-21
2022/01/15 12:30:36;;;;;;;19.73;13.30;;;20.60;36.00;;;;;;5079169;28;20025;-20
2022/01/15 12:33:05;;;;;;;16.48;12.07;;;20.70;36.50;;;;;;5079357;28;20032;-20
2022/01/15 12:35:34;;;;;;;17.83;13.18;;;20.90;36.80;;;;;;5079538;28;20113;-21
2022/01/15 12:38:07;;;;;;;19.90;14.40;;;21.10;36.30;;;;;;5079691;28;20494;-20
2022/01/15 12:40:47;;;;;;;18.63;14.03;;;21.20;36.40;;;;;;5079368;28;20038;-21
2022/01/15 12:43:22;;;;;;;19.27;12.30;;;21.30;36.10;;;;;;5079236;28;20259;-20
2022/01/15 12:46:10;;;;;;;17.98;13.02;;;21.40;35.50;;;;;;5079219;28;20392;-21
2022/01/15 12:48:40;;;;;;;19.92;14.65;;;21.40;36.30;;;;;;5079294;28;20032;-20
2022/01/15 12:51:10;;;;;;;19.35;14.43;;;21.20;36.30;;;;;;5079121;28;20484;-21
2022/01/15 12:53:39;;;;;;;20.77;15.20;;;20.90;36.80;;;;;;5079463;28;20126;-20
2022/01/15 12:56:10;;;;;;;19.40;14.05;;;20.60;36.60;;;;;;5078916;28;20515;-21
2022/01/15 12:58:36;;;;;;;17.38;13.07;;;20.30;37.50;;;;;;5079411;28;20047;-21